sensor_id;sensor_type;location;lat;lon;timestamp;P1;durP1;ratioP1;P2;durP2;ratioP2
17265;SDS011;8749;47.076;15.412;2022-09-03T00:00:04;6.18;;;3.10;;
17265;SDS011;8749;47.076;15.412;2022-09-03T00:02:37;3.45;;;3.15;;
17265;SDS011;8749;47.076;15.412;2022-09-03T00:05:11;3.42;;;3.13;;
17265;SDS011;8749;47.076;15.412;2022-09-03T00:07:45;3.45;;;3.22;;
17265;SDS011;8749;47.076;15.412;2022-09-03T00:10:19;3.90;;;3.17;;
17265;SDS011;8749;47.076;15.412;2022-09-03T00:12:50;3.10;;;2.90;;
17265;SDS011;8749;47.076;15.412;2022-09-03T00:15:20;5.20;;;3.30;;
17265;SDS011;8749;47.076;15.412;2022-09-03T00:17:49;4.05;;;3.03;;
17265;SDS011;8749;47.076;15.412;2022-09-03T00:20:24;3.35;;;3.10;;
17265;SDS011;8749;47.076;15.412;2022-09-03T00:22:56;3.92;;;3.30;;
17265;SDS011;8749;47.076;15.412;2022-09-03T00:25:27;2.90;;;2.70;;
17265;SDS011;8749;47.076;15.412;2022-09-03T00:27:59;3.20;;;3.00;;
17265;SDS011;8749;47.076;15.412;2022-09-03T00:30:31;3.30;;;3.03;;
17265;SDS011;8749;47.076;15.412;2022-09-03T00:33:00;3.20;;;3.00;;
17265;SDS011;8749;47.076;15.412;2022-09-03T00:35:33;3.35;;;3.05;;
17265;SDS011;8749;47.076;15.412;2022-09-03T00:38:06;3.50;;;3.20;;
17265;SDS011;8749;47.076;15.412;2022-09-03T00:40:37;3.88;;;2.90;;
17265;SDS011;8749;47.076;15.412;2022-09-03T00:43:18;3.67;;;3.20;;
17265;SDS011;8749;47.076;15.412;2022-09-03T00:46:00;3.95;;;2.90;;
17265;SDS011;8749;47.076;15.412;2022-09-03T00:48:32;3.10;;;2.90;;
17265;SDS011;8749;47.076;15.412;2022-09-03T00:51:12;3.10;;;2.90;;
17265;SDS011;8749;47.076;15.412;2022-09-03T00:53:51;3.10;;;2.90;;
17265;SDS011;8749;47.076;15.412;2022-09-03T00:56:26;3.45;;;3.17;;
17265;SDS011;8749;47.076;15.412;2022-09-03T00:59:07;3.47;;;3.20;;
17265;SDS011;8749;47.076;15.412;2022-09-03T01:01:42;3.17;;;2.97;;
17265;SDS011;8749;47.076;15.412;2022-09-03T01:04:18;3.50;;;3.20;;
17265;SDS011;8749;47.076;15.412;2022-09-03T01:06:56;4.22;;;3.00;;
17265;SDS011;8749;47.076;15.412;2022-09-03T01:09:33;4.40;;;3.30;;
17265;SDS011;8749;47.076;15.412;2022-09-03T01:12:14;3.17;;;3.00;;
17265;SDS011;8749;47.076;15.412;2022-09-03T01:14:51;3.30;;;3.13;;
17265;SDS011;8749;47.076;15.412;2022-09-03T01:17:29;3.35;;;3.15;;
17265;SDS011;8749;47.076;15.412;2022-09-03T01:20:17;3.20;;;3.00;;
17265;SDS011;8749;47.076;15.412;2022-09-03T01:23:17;3.60;;;3.40;;
17265;SDS011;8749;47.076;15.412;2022-09-03T01:26:04;3.97;;;3.30;;
17265;SDS011;8749;47.076;15.412;2022-09-03T01:28:50;3.33;;;3.13;;
17265;SDS011;8749;47.076;15.412;2022-09-03T01:31:31;5.38;;;4.90;;
17265;SDS011;8749;47.076;15.412;2022-09-03T01:34:07;4.00;;;3.63;;
17265;SDS011;8749;47.076;15.412;2022-09-03T01:36:41;3.58;;;3.20;;
17265;SDS011;8749;47.076;15.412;2022-09-03T01:39:16;3.90;;;3.60;;
17265;SDS011;8749;47.076;15.412;2022-09-03T01:41:55;3.85;;;3.40;;
17265;SDS011;8749;47.076;15.412;2022-09-03T01:44:45;3.60;;;3.30;;
17265;SDS011;8749;47.076;15.412;2022-09-03T01:47:32;3.95;;;3.65;;
17265;SDS011;8749;47.076;15.412;2022-09-03T01:50:12;5.10;;;3.67;;
17265;SDS011;8749;47.076;15.412;2022-09-03T01:52:49;4.03;;;3.63;;
17265;SDS011;8749;47.076;15.412;2022-09-03T01:55:24;4.05;;;3.70;;
17265;SDS011;8749;47.076;15.412;2022-09-03T01:57:57;3.92;;;3.63;;
17265;SDS011;8749;47.076;15.412;2022-09-03T02:00:32;3.92;;;3.60;;
17265;SDS011;8749;47.076;15.412;2022-09-03T02:03:03;7.38;;;3.75;;
17265;SDS011;8749;47.076;15.412;2022-09-03T02:05:31;3.92;;;3.70;;
17265;SDS011;8749;47.076;15.412;2022-09-03T02:08:00;3.70;;;3.50;;
17265;SDS011;8749;47.076;15.412;2022-09-03T02:10:29;3.80;;;3.45;;
17265;SDS011;8749;47.076;15.412;2022-09-03T02:13:01;3.92;;;3.55;;
17265;SDS011;8749;47.076;15.412;2022-09-03T02:15:33;4.20;;;3.40;;
17265;SDS011;8749;47.076;15.412;2022-09-03T02:18:04;3.80;;;3.50;;
17265;SDS011;8749;47.076;15.412;2022-09-03T02:20:34;3.85;;;3.55;;
17265;SDS011;8749;47.076;15.412;2022-09-03T02:23:02;3.70;;;3.50;;
17265;SDS011;8749;47.076;15.412;2022-09-03T02:25:30;3.70;;;3.40;;
17265;SDS011;8749;47.076;15.412;2022-09-03T02:28:02;4.90;;;3.42;;
17265;SDS011;8749;47.076;15.412;2022-09-03T02:30:30;3.80;;;3.60;;
17265;SDS011;8749;47.076;15.412;2022-09-03T02:32:58;4.50;;;3.90;;
17265;SDS011;8749;47.076;15.412;2022-09-03T02:35:26;4.75;;;3.40;;
17265;SDS011;8749;47.076;15.412;2022-09-03T02:37:53;3.58;;;3.28;;
17265;SDS011;8749;47.076;15.412;2022-09-03T02:40:20;3.90;;;3.50;;
17265;SDS011;8749;47.076;15.412;2022-09-03T02:42:47;3.80;;;3.55;;
17265;SDS011;8749;47.076;15.412;2022-09-03T02:45:18;4.50;;;3.25;;
17265;SDS011;8749;47.076;15.412;2022-09-03T02:47:50;3.65;;;3.33;;
17265;SDS011;8749;47.076;15.412;2022-09-03T02:50:21;4.25;;;3.70;;
17265;SDS011;8749;47.076;15.412;2022-09-03T02:52:48;3.72;;;3.42;;
17265;SDS011;8749;47.076;15.412;2022-09-03T02:55:15;3.67;;;3.38;;
17265;SDS011;8749;47.076;15.412;2022-09-03T02:57:44;3.70;;;3.40;;
17265;SDS011;8749;47.076;15.412;2022-09-03T03:00:11;3.60;;;3.30;;
17265;SDS011;8749;47.076;15.412;2022-09-03T03:02:39;3.80;;;3.50;;
17265;SDS011;8749;47.076;15.412;2022-09-03T03:05:07;3.80;;;3.35;;
17265;SDS011;8749;47.076;15.412;2022-09-03T03:07:40;4.00;;;3.60;;
17265;SDS011;8749;47.076;15.412;2022-09-03T03:10:07;3.80;;;3.50;;
17265;SDS011;8749;47.076;15.412;2022-09-03T03:12:35;3.30;;;3.10;;
17265;SDS011;8749;47.076;15.412;2022-09-03T03:15:02;3.47;;;3.28;;
17265;SDS011;8749;47.076;15.412;2022-09-03T03:17:29;3.63;;;3.40;;
17265;SDS011;8749;47.076;15.412;2022-09-03T03:19:56;5.22;;;3.47;;
17265;SDS011;8749;47.076;15.412;2022-09-03T03:22:23;3.83;;;3.40;;
17265;SDS011;8749;47.076;15.412;2022-09-03T03:24:51;4.18;;;3.67;;
17265;SDS011;8749;47.076;15.412;2022-09-03T03:27:19;5.10;;;3.38;;
17265;SDS011;8749;47.076;15.412;2022-09-03T03:29:46;4.82;;;3.40;;
17265;SDS011;8749;47.076;15.412;2022-09-03T03:32:14;3.40;;;3.20;;
17265;SDS011;8749;47.076;15.412;2022-09-03T03:34:41;3.55;;;3.25;;
17265;SDS011;8749;47.076;15.412;2022-09-03T03:37:08;3.95;;;3.42;;
17265;SDS011;8749;47.076;15.412;2022-09-03T03:39:35;3.53;;;3.17;;
17265;SDS011;8749;47.076;15.412;2022-09-03T03:42:03;3.40;;;3.20;;
17265;SDS011;8749;47.076;15.412;2022-09-03T03:44:30;4.60;;;3.35;;
17265;SDS011;8749;47.076;15.412;2022-09-03T03:46:57;3.60;;;3.20;;
17265;SDS011;8749;47.076;15.412;2022-09-03T03:49:24;3.50;;;3.30;;
17265;SDS011;8749;47.076;15.412;2022-09-03T03:51:51;3.88;;;3.30;;
17265;SDS011;8749;47.076;15.412;2022-09-03T03:54:18;3.50;;;3.30;;
17265;SDS011;8749;47.076;15.412;2022-09-03T03:56:44;3.95;;;3.65;;
17265;SDS011;8749;47.076;15.412;2022-09-03T03:59:13;3.72;;;3.42;;
17265;SDS011;8749;47.076;15.412;2022-09-03T04:01:40;4.05;;;3.45;;
17265;SDS011;8749;47.076;15.412;2022-09-03T04:04:06;5.10;;;3.67;;
17265;SDS011;8749;47.076;15.412;2022-09-03T04:06:33;3.95;;;3.70;;
17265;SDS011;8749;47.076;15.412;2022-09-03T04:09:00;3.90;;;3.60;;
17265;SDS011;8749;47.076;15.412;2022-09-03T04:11:27;3.85;;;3.55;;
17265;SDS011;8749;47.076;15.412;2022-09-03T04:13:54;3.97;;;3.58;;
17265;SDS011;8749;47.076;15.412;2022-09-03T04:16:23;4.93;;;3.50;;
17265;SDS011;8749;47.076;15.412;2022-09-03T04:18:51;3.70;;;3.40;;
17265;SDS011;8749;47.076;15.412;2022-09-03T04:21:19;4.25;;;3.60;;
17265;SDS011;8749;47.076;15.412;2022-09-03T04:23:47;4.72;;;3.40;;
17265;SDS011;8749;47.076;15.412;2022-09-03T04:26:15;3.50;;;3.30;;
17265;SDS011;8749;47.076;15.412;2022-09-03T04:28:44;3.78;;;3.47;;
17265;SDS011;8749;47.076;15.412;2022-09-03T04:31:11;4.38;;;3.80;;
17265;SDS011;8749;47.076;15.412;2022-09-03T04:33:41;4.15;;;3.65;;
17265;SDS011;8749;47.076;15.412;2022-09-03T04:36:09;3.67;;;3.47;;
17265;SDS011;8749;47.076;15.412;2022-09-03T04:38:38;6.00;;;3.92;;
17265;SDS011;8749;47.076;15.412;2022-09-03T04:41:07;4.00;;;3.60;;
17265;SDS011;8749;47.076;15.412;2022-09-03T04:43:35;4.03;;;3.40;;
17265;SDS011;8749;47.076;15.412;2022-09-03T04:46:03;3.90;;;3.60;;
17265;SDS011;8749;47.076;15.412;2022-09-03T04:48:32;3.97;;;3.67;;
17265;SDS011;8749;47.076;15.412;2022-09-03T04:51:02;4.75;;;3.75;;
17265;SDS011;8749;47.076;15.412;2022-09-03T04:53:31;3.97;;;3.67;;
17265;SDS011;8749;47.076;15.412;2022-09-03T04:55:59;4.43;;;4.03;;
17265;SDS011;8749;47.076;15.412;2022-09-03T04:58:26;4.25;;;3.80;;
17265;SDS011;8749;47.076;15.412;2022-09-03T05:00:53;4.18;;;3.80;;
17265;SDS011;8749;47.076;15.412;2022-09-03T05:03:20;4.63;;;3.97;;
17265;SDS011;8749;47.076;15.412;2022-09-03T05:05:51;4.47;;;4.07;;
17265;SDS011;8749;47.076;15.412;2022-09-03T05:08:20;5.93;;;3.80;;
17265;SDS011;8749;47.076;15.412;2022-09-03T05:10:48;3.92;;;3.63;;
17265;SDS011;8749;47.076;15.412;2022-09-03T05:13:15;4.00;;;3.70;;
17265;SDS011;8749;47.076;15.412;2022-09-03T05:15:41;7.15;;;6.50;;
17265;SDS011;8749;47.076;15.412;2022-09-03T05:18:09;6.35;;;5.75;;
17265;SDS011;8749;47.076;15.412;2022-09-03T05:20:36;6.70;;;6.00;;
17265;SDS011;8749;47.076;15.412;2022-09-03T05:23:03;6.07;;;5.45;;
17265;SDS011;8749;47.076;15.412;2022-09-03T05:25:32;4.97;;;4.40;;
17265;SDS011;8749;47.076;15.412;2022-09-03T05:28:02;4.53;;;4.22;;
17265;SDS011;8749;47.076;15.412;2022-09-03T05:30:29;4.53;;;4.22;;
17265;SDS011;8749;47.076;15.412;2022-09-03T05:32:56;4.35;;;4.05;;
17265;SDS011;8749;47.076;15.412;2022-09-03T05:35:23;4.60;;;4.20;;
17265;SDS011;8749;47.076;15.412;2022-09-03T05:37:50;4.75;;;4.13;;
17265;SDS011;8749;47.076;15.412;2022-09-03T05:40:20;4.25;;;3.80;;
17265;SDS011;8749;47.076;15.412;2022-09-03T05:42:48;7.63;;;6.20;;
17265;SDS011;8749;47.076;15.412;2022-09-03T05:45:21;6.00;;;5.50;;
17265;SDS011;8749;47.076;15.412;2022-09-03T05:47:48;6.18;;;4.60;;
17265;SDS011;8749;47.076;15.412;2022-09-03T05:50:15;5.00;;;4.50;;
17265;SDS011;8749;47.076;15.412;2022-09-03T05:52:42;4.57;;;4.15;;
17265;SDS011;8749;47.076;15.412;2022-09-03T05:55:09;4.10;;;3.70;;
17265;SDS011;8749;47.076;15.412;2022-09-03T05:57:36;5.25;;;4.00;;
17265;SDS011;8749;47.076;15.412;2022-09-03T06:00:05;5.32;;;4.10;;
17265;SDS011;8749;47.076;15.412;2022-09-03T06:02:33;5.90;;;4.15;;
17265;SDS011;8749;47.076;15.412;2022-09-03T06:05:01;4.00;;;3.70;;
17265;SDS011;8749;47.076;15.412;2022-09-03T06:07:28;3.92;;;3.63;;
17265;SDS011;8749;47.076;15.412;2022-09-03T06:09:55;3.90;;;3.45;;
17265;SDS011;8749;47.076;15.412;2022-09-03T06:12:22;3.92;;;3.63;;
17265;SDS011;8749;47.076;15.412;2022-09-03T06:14:48;3.97;;;3.58;;
17265;SDS011;8749;47.076;15.412;2022-09-03T06:17:17;4.15;;;3.85;;
17265;SDS011;8749;47.076;15.412;2022-09-03T06:19:44;10.15;;;7.70;;
17265;SDS011;8749;47.076;15.412;2022-09-03T06:22:10;9.30;;;7.43;;
17265;SDS011;8749;47.076;15.412;2022-09-03T06:24:37;17.38;;;11.80;;
17265;SDS011;8749;47.076;15.412;2022-09-03T06:27:04;7.28;;;6.10;;
17265;SDS011;8749;47.076;15.412;2022-09-03T06:29:32;4.65;;;4.25;;
17265;SDS011;8749;47.076;15.412;2022-09-03T06:31:59;3.88;;;3.47;;
17265;SDS011;8749;47.076;15.412;2022-09-03T06:34:30;4.10;;;3.80;;
17265;SDS011;8749;47.076;15.412;2022-09-03T06:36:57;6.32;;;5.75;;
17265;SDS011;8749;47.076;15.412;2022-09-03T06:39:24;6.10;;;4.72;;
17265;SDS011;8749;47.076;15.412;2022-09-03T06:41:51;4.72;;;4.13;;
17265;SDS011;8749;47.076;15.412;2022-09-03T06:44:19;4.22;;;3.70;;
17265;SDS011;8749;47.076;15.412;2022-09-03T06:46:46;4.57;;;4.18;;
17265;SDS011;8749;47.076;15.412;2022-09-03T06:49:14;3.72;;;3.53;;
17265;SDS011;8749;47.076;15.412;2022-09-03T06:51:43;3.88;;;3.58;;
17265;SDS011;8749;47.076;15.412;2022-09-03T06:54:10;3.38;;;3.13;;
17265;SDS011;8749;47.076;15.412;2022-09-03T06:56:38;3.45;;;3.15;;
17265;SDS011;8749;47.076;15.412;2022-09-03T06:59:06;3.92;;;3.40;;
17265;SDS011;8749;47.076;15.412;2022-09-03T07:01:34;4.00;;;3.60;;
17265;SDS011;8749;47.076;15.412;2022-09-03T07:04:04;6.90;;;3.72;;
17265;SDS011;8749;47.076;15.412;2022-09-03T07:06:33;4.63;;;3.30;;
17265;SDS011;8749;47.076;15.412;2022-09-03T07:09:04;3.67;;;3.20;;
17265;SDS011;8749;47.076;15.412;2022-09-03T07:11:31;3.78;;;3.25;;
17265;SDS011;8749;47.076;15.412;2022-09-03T07:14:01;12.20;;;8.38;;
17265;SDS011;8749;47.076;15.412;2022-09-03T07:16:29;3.85;;;3.60;;
17265;SDS011;8749;47.076;15.412;2022-09-03T07:18:58;3.30;;;3.10;;
17265;SDS011;8749;47.076;15.412;2022-09-03T07:21:28;3.22;;;3.10;;
17265;SDS011;8749;47.076;15.412;2022-09-03T07:23:58;3.70;;;2.90;;
17265;SDS011;8749;47.076;15.412;2022-09-03T07:26:29;4.35;;;3.95;;
17265;SDS011;8749;47.076;15.412;2022-09-03T07:28:57;5.35;;;3.53;;
17265;SDS011;8749;47.076;15.412;2022-09-03T07:31:26;4.00;;;3.00;;
17265;SDS011;8749;47.076;15.412;2022-09-03T07:33:55;3.30;;;3.00;;
17265;SDS011;8749;47.076;15.412;2022-09-03T07:36:24;3.25;;;3.00;;
17265;SDS011;8749;47.076;15.412;2022-09-03T07:38:53;2.95;;;2.80;;
17265;SDS011;8749;47.076;15.412;2022-09-03T07:41:21;3.28;;;2.90;;
17265;SDS011;8749;47.076;15.412;2022-09-03T07:43:51;4.45;;;3.33;;
17265;SDS011;8749;47.076;15.412;2022-09-03T07:46:19;3.10;;;2.90;;
17265;SDS011;8749;47.076;15.412;2022-09-03T07:48:48;2.70;;;2.53;;
17265;SDS011;8749;47.076;15.412;2022-09-03T07:51:16;3.10;;;2.90;;
17265;SDS011;8749;47.076;15.412;2022-09-03T07:53:43;3.08;;;2.90;;
17265;SDS011;8749;47.076;15.412;2022-09-03T07:56:10;3.15;;;2.70;;
17265;SDS011;8749;47.076;15.412;2022-09-03T07:58:38;3.17;;;2.88;;
17265;SDS011;8749;47.076;15.412;2022-09-03T08:01:08;3.10;;;2.90;;
17265;SDS011;8749;47.076;15.412;2022-09-03T08:03:36;3.35;;;3.05;;
17265;SDS011;8749;47.076;15.412;2022-09-03T08:06:05;3.40;;;3.13;;
17265;SDS011;8749;47.076;15.412;2022-09-03T08:08:33;3.28;;;2.97;;
17265;SDS011;8749;47.076;15.412;2022-09-03T08:11:04;3.20;;;3.00;;
17265;SDS011;8749;47.076;15.412;2022-09-03T08:13:34;3.20;;;3.00;;
17265;SDS011;8749;47.076;15.412;2022-09-03T08:16:01;3.20;;;3.00;;
17265;SDS011;8749;47.076;15.412;2022-09-03T08:18:31;3.15;;;2.85;;
17265;SDS011;8749;47.076;15.412;2022-09-03T08:21:01;3.80;;;3.03;;
17265;SDS011;8749;47.076;15.412;2022-09-03T08:23:31;3.72;;;3.30;;
17265;SDS011;8749;47.076;15.412;2022-09-03T08:25:59;3.63;;;3.33;;
17265;SDS011;8749;47.076;15.412;2022-09-03T08:28:27;4.47;;;3.50;;
17265;SDS011;8749;47.076;15.412;2022-09-03T08:30:58;4.93;;;3.65;;
17265;SDS011;8749;47.076;15.412;2022-09-03T08:33:32;7.47;;;3.65;;
17265;SDS011;8749;47.076;15.412;2022-09-03T08:36:07;3.78;;;3.50;;
17265;SDS011;8749;47.076;15.412;2022-09-03T08:38:36;4.75;;;3.40;;
17265;SDS011;8749;47.076;15.412;2022-09-03T08:41:05;3.88;;;3.50;;
17265;SDS011;8749;47.076;15.412;2022-09-03T08:43:38;4.65;;;3.70;;
17265;SDS011;8749;47.076;15.412;2022-09-03T08:46:40;3.58;;;3.28;;
17265;SDS011;8749;47.076;15.412;2022-09-03T08:49:17;3.60;;;3.30;;
17265;SDS011;8749;47.076;15.412;2022-09-03T08:51:49;4.30;;;4.00;;
17265;SDS011;8749;47.076;15.412;2022-09-03T08:54:20;4.88;;;4.47;;
17265;SDS011;8749;47.076;15.412;2022-09-03T08:56:49;5.97;;;4.75;;
17265;SDS011;8749;47.076;15.412;2022-09-03T08:59:16;4.30;;;4.00;;
17265;SDS011;8749;47.076;15.412;2022-09-03T09:01:48;4.68;;;4.20;;
17265;SDS011;8749;47.076;15.412;2022-09-03T09:04:26;3.72;;;3.40;;
17265;SDS011;8749;47.076;15.412;2022-09-03T09:07:03;3.80;;;3.50;;
17265;SDS011;8749;47.076;15.412;2022-09-03T09:09:37;4.03;;;3.72;;
17265;SDS011;8749;47.076;15.412;2022-09-03T09:12:14;3.35;;;3.05;;
17265;SDS011;8749;47.076;15.412;2022-09-03T09:14:56;4.00;;;3.70;;
17265;SDS011;8749;47.076;15.412;2022-09-03T09:17:39;3.85;;;3.58;;
17265;SDS011;8749;47.076;15.412;2022-09-03T09:20:20;3.70;;;3.40;;
17265;SDS011;8749;47.076;15.412;2022-09-03T09:22:54;6.07;;;3.50;;
17265;SDS011;8749;47.076;15.412;2022-09-03T09:25:26;3.25;;;3.03;;
17265;SDS011;8749;47.076;15.412;2022-09-03T09:27:56;4.05;;;3.20;;
17265;SDS011;8749;47.076;15.412;2022-09-03T09:30:26;4.18;;;3.80;;
17265;SDS011;8749;47.076;15.412;2022-09-03T09:32:54;4.82;;;3.25;;
17265;SDS011;8749;47.076;15.412;2022-09-03T09:35:22;3.85;;;3.28;;
17265;SDS011;8749;47.076;15.412;2022-09-03T09:37:50;3.85;;;3.55;;
17265;SDS011;8749;47.076;15.412;2022-09-03T09:40:22;4.03;;;3.20;;
17265;SDS011;8749;47.076;15.412;2022-09-03T09:43:01;3.88;;;3.53;;
17265;SDS011;8749;47.076;15.412;2022-09-03T09:45:34;3.75;;;3.45;;
17265;SDS011;8749;47.076;15.412;2022-09-03T09:48:07;4.45;;;3.33;;
17265;SDS011;8749;47.076;15.412;2022-09-03T09:50:40;3.45;;;3.20;;
17265;SDS011;8749;47.076;15.412;2022-09-03T09:53:08;3.28;;;3.08;;
17265;SDS011;8749;47.076;15.412;2022-09-03T09:55:50;3.67;;;3.47;;
17265;SDS011;8749;47.076;15.412;2022-09-03T09:58:19;4.85;;;3.00;;
17265;SDS011;8749;47.076;15.412;2022-09-03T10:00:57;3.92;;;2.90;;
17265;SDS011;8749;47.076;15.412;2022-09-03T10:03:32;5.68;;;3.70;;
17265;SDS011;8749;47.076;15.412;2022-09-03T10:06:02;10.77;;;5.50;;
17265;SDS011;8749;47.076;15.412;2022-09-03T10:08:45;3.35;;;3.15;;
17265;SDS011;8749;47.076;15.412;2022-09-03T10:11:12;4.05;;;2.97;;
17265;SDS011;8749;47.076;15.412;2022-09-03T10:13:39;6.28;;;5.20;;
17265;SDS011;8749;47.076;15.412;2022-09-03T10:16:09;5.40;;;3.60;;
17265;SDS011;8749;47.076;15.412;2022-09-03T10:18:48;7.22;;;5.22;;
17265;SDS011;8749;47.076;15.412;2022-09-03T10:21:26;4.63;;;4.15;;
17265;SDS011;8749;47.076;15.412;2022-09-03T10:23:58;4.53;;;3.80;;
17265;SDS011;8749;47.076;15.412;2022-09-03T10:26:28;4.15;;;3.72;;
17265;SDS011;8749;47.076;15.412;2022-09-03T10:28:58;3.15;;;2.70;;
17265;SDS011;8749;47.076;15.412;2022-09-03T10:31:33;3.88;;;3.50;;
17265;SDS011;8749;47.076;15.412;2022-09-03T10:34:08;2.90;;;2.80;;
17265;SDS011;8749;47.076;15.412;2022-09-03T10:36:41;3.33;;;3.08;;
17265;SDS011;8749;47.076;15.412;2022-09-03T10:39:18;2.83;;;2.72;;
17265;SDS011;8749;47.076;15.412;2022-09-03T10:41:51;2.90;;;2.70;;
17265;SDS011;8749;47.076;15.412;2022-09-03T10:44:35;3.67;;;2.80;;
17265;SDS011;8749;47.076;15.412;2022-09-03T10:47:16;2.70;;;2.60;;
17265;SDS011;8749;47.076;15.412;2022-09-03T10:49:58;3.22;;;3.10;;
17265;SDS011;8749;47.076;15.412;2022-09-03T10:52:37;3.08;;;2.90;;
17265;SDS011;8749;47.076;15.412;2022-09-03T10:55:15;5.88;;;3.00;;
17265;SDS011;8749;47.076;15.412;2022-09-03T10:57:48;3.00;;;2.90;;
17265;SDS011;8749;47.076;15.412;2022-09-03T11:00:21;3.85;;;3.55;;
17265;SDS011;8749;47.076;15.412;2022-09-03T11:02:54;5.30;;;3.10;;
17265;SDS011;8749;47.076;15.412;2022-09-03T11:05:51;5.43;;;4.88;;
17265;SDS011;8749;47.076;15.412;2022-09-03T11:08:26;4.60;;;4.10;;
17265;SDS011;8749;47.076;15.412;2022-09-03T11:10:59;3.05;;;2.90;;
17265;SDS011;8749;47.076;15.412;2022-09-03T11:13:36;6.35;;;4.32;;
17265;SDS011;8749;47.076;15.412;2022-09-03T11:16:08;4.60;;;4.18;;
17265;SDS011;8749;47.076;15.412;2022-09-03T11:18:42;4.13;;;3.55;;
17265;SDS011;8749;47.076;15.412;2022-09-03T11:21:14;5.60;;;3.50;;
17265;SDS011;8749;47.076;15.412;2022-09-03T11:23:46;3.08;;;2.88;;
17265;SDS011;8749;47.076;15.412;2022-09-03T11:26:17;2.80;;;2.65;;
17265;SDS011;8749;47.076;15.412;2022-09-03T11:28:48;2.90;;;2.70;;
17265;SDS011;8749;47.076;15.412;2022-09-03T11:31:24;3.10;;;2.80;;
17265;SDS011;8749;47.076;15.412;2022-09-03T11:34:04;4.88;;;2.80;;
17265;SDS011;8749;47.076;15.412;2022-09-03T11:36:35;4.40;;;2.60;;
17265;SDS011;8749;47.076;15.412;2022-09-03T11:39:13;2.90;;;2.80;;
17265;SDS011;8749;47.076;15.412;2022-09-03T11:41:54;2.80;;;2.60;;
17265;SDS011;8749;47.076;15.412;2022-09-03T11:44:23;2.67;;;2.58;;
17265;SDS011;8749;47.076;15.412;2022-09-03T11:47:11;2.80;;;2.60;;
17265;SDS011;8749;47.076;15.412;2022-09-03T11:49:43;3.05;;;2.85;;
17265;SDS011;8749;47.076;15.412;2022-09-03T11:52:23;4.72;;;3.20;;
17265;SDS011;8749;47.076;15.412;2022-09-03T11:54:52;2.70;;;2.60;;
17265;SDS011;8749;47.076;15.412;2022-09-03T11:57:22;2.80;;;2.70;;
17265;SDS011;8749;47.076;15.412;2022-09-03T11:59:52;2.80;;;2.60;;
17265;SDS011;8749;47.076;15.412;2022-09-03T12:02:24;2.90;;;2.63;;
17265;SDS011;8749;47.076;15.412;2022-09-03T12:05:03;2.58;;;2.38;;
17265;SDS011;8749;47.076;15.412;2022-09-03T12:07:46;3.17;;;2.65;;
17265;SDS011;8749;47.076;15.412;2022-09-03T12:10:30;3.33;;;2.47;;
17265;SDS011;8749;47.076;15.412;2022-09-03T12:13:08;3.15;;;2.80;;
17265;SDS011;8749;47.076;15.412;2022-09-03T12:15:59;4.07;;;2.53;;
17265;SDS011;8749;47.076;15.412;2022-09-03T12:18:48;8.00;;;6.47;;
17265;SDS011;8749;47.076;15.412;2022-09-03T12:21:17;10.52;;;8.63;;
17265;SDS011;8749;47.076;15.412;2022-09-03T12:23:45;3.40;;;3.13;;
17265;SDS011;8749;47.076;15.412;2022-09-03T12:26:16;4.40;;;2.50;;
17265;SDS011;8749;47.076;15.412;2022-09-03T12:28:45;3.20;;;2.60;;
17265;SDS011;8749;47.076;15.412;2022-09-03T12:31:14;2.35;;;2.15;;
17265;SDS011;8749;47.076;15.412;2022-09-03T12:33:47;3.20;;;2.60;;
17265;SDS011;8749;47.076;15.412;2022-09-03T12:36:16;2.47;;;2.38;;
17265;SDS011;8749;47.076;15.412;2022-09-03T12:38:43;2.65;;;2.55;;
17265;SDS011;8749;47.076;15.412;2022-09-03T12:41:23;4.43;;;2.50;;
17265;SDS011;8749;47.076;15.412;2022-09-03T12:43:52;2.30;;;2.15;;
17265;SDS011;8749;47.076;15.412;2022-09-03T12:46:24;3.35;;;2.53;;
17265;SDS011;8749;47.076;15.412;2022-09-03T12:48:55;4.03;;;2.60;;
17265;SDS011;8749;47.076;15.412;2022-09-03T12:51:30;2.30;;;2.20;;
17265;SDS011;8749;47.076;15.412;2022-09-03T12:53:58;2.25;;;2.05;;
17265;SDS011;8749;47.076;15.412;2022-09-03T12:56:27;2.45;;;2.20;;
17265;SDS011;8749;47.076;15.412;2022-09-03T12:58:57;2.50;;;2.38;;
17265;SDS011;8749;47.076;15.412;2022-09-03T13:01:28;2.45;;;2.25;;
17265;SDS011;8749;47.076;15.412;2022-09-03T13:03:58;2.90;;;2.20;;
17265;SDS011;8749;47.076;15.412;2022-09-03T13:06:30;2.28;;;2.17;;
17265;SDS011;8749;47.076;15.412;2022-09-03T13:09:03;3.03;;;2.50;;
17265;SDS011;8749;47.076;15.412;2022-09-03T13:11:35;2.38;;;2.20;;
17265;SDS011;8749;47.076;15.412;2022-09-03T13:14:03;2.90;;;2.20;;
17265;SDS011;8749;47.076;15.412;2022-09-03T13:16:42;2.40;;;2.20;;
17265;SDS011;8749;47.076;15.412;2022-09-03T13:19:19;2.20;;;2.10;;
17265;SDS011;8749;47.076;15.412;2022-09-03T13:21:53;2.10;;;2.00;;
17265;SDS011;8749;47.076;15.412;2022-09-03T13:27:24;4.70;;;4.13;;
17265;SDS011;8749;47.076;15.412;2022-09-03T13:29:59;4.13;;;3.10;;
17265;SDS011;8749;47.076;15.412;2022-09-03T13:32:36;2.55;;;2.35;;
17265;SDS011;8749;47.076;15.412;2022-09-03T13:35:10;3.97;;;2.20;;
17265;SDS011;8749;47.076;15.412;2022-09-03T13:37:44;2.53;;;2.30;;
17265;SDS011;8749;47.076;15.412;2022-09-03T13:40:15;2.50;;;2.30;;
17265;SDS011;8749;47.076;15.412;2022-09-03T13:42:50;3.20;;;3.00;;
17265;SDS011;8749;47.076;15.412;2022-09-03T13:45:28;2.47;;;2.30;;
17265;SDS011;8749;47.076;15.412;2022-09-03T13:48:05;2.00;;;2.00;;
17265;SDS011;8749;47.076;15.412;2022-09-03T13:50:56;2.72;;;2.60;;
17265;SDS011;8749;47.076;15.412;2022-09-03T13:53:31;2.22;;;2.08;;
17265;SDS011;8749;47.076;15.412;2022-09-03T13:56:12;1.75;;;1.70;;
17265;SDS011;8749;47.076;15.412;2022-09-03T13:58:48;1.92;;;1.83;;
17265;SDS011;8749;47.076;15.412;2022-09-03T14:01:22;2.03;;;1.90;;
17265;SDS011;8749;47.076;15.412;2022-09-03T14:03:52;1.77;;;1.70;;
17265;SDS011;8749;47.076;15.412;2022-09-03T14:06:25;3.33;;;1.90;;
17265;SDS011;8749;47.076;15.412;2022-09-03T14:09:09;1.98;;;1.85;;
17265;SDS011;8749;47.076;15.412;2022-09-03T14:11:45;1.80;;;1.70;;
17265;SDS011;8749;47.076;15.412;2022-09-03T14:14:20;2.17;;;1.95;;
17265;SDS011;8749;47.076;15.412;2022-09-03T14:17:01;2.78;;;2.00;;
17265;SDS011;8749;47.076;15.412;2022-09-03T14:19:38;2.15;;;2.05;;
17265;SDS011;8749;47.076;15.412;2022-09-03T14:22:12;1.95;;;1.90;;
17265;SDS011;8749;47.076;15.412;2022-09-03T14:24:45;2.03;;;1.92;;
17265;SDS011;8749;47.076;15.412;2022-09-03T14:27:21;2.08;;;1.90;;
17265;SDS011;8749;47.076;15.412;2022-09-03T14:29:53;2.90;;;1.88;;
17265;SDS011;8749;47.076;15.412;2022-09-03T14:32:26;4.00;;;3.70;;
17265;SDS011;8749;47.076;15.412;2022-09-03T14:38:01;2.47;;;2.28;;
17265;SDS011;8749;47.076;15.412;2022-09-03T14:40:58;3.95;;;2.20;;
17265;SDS011;8749;47.076;15.412;2022-09-03T14:43:36;3.20;;;2.13;;
17265;SDS011;8749;47.076;15.412;2022-09-03T14:46:34;2.13;;;2.03;;
17265;SDS011;8749;47.076;15.412;2022-09-03T14:49:20;5.70;;;1.92;;
17265;SDS011;8749;47.076;15.412;2022-09-03T14:52:06;2.45;;;1.98;;
17265;SDS011;8749;47.076;15.412;2022-09-03T14:54:51;3.03;;;1.90;;
17265;SDS011;8749;47.076;15.412;2022-09-03T14:57:41;1.95;;;1.85;;
17265;SDS011;8749;47.076;15.412;2022-09-03T15:00:24;2.42;;;2.00;;
17265;SDS011;8749;47.076;15.412;2022-09-03T15:03:04;2.08;;;1.98;;
17265;SDS011;8749;47.076;15.412;2022-09-03T15:11:53;2.30;;;2.10;;
17265;SDS011;8749;47.076;15.412;2022-09-03T15:14:25;4.40;;;4.00;;
17265;SDS011;8749;47.076;15.412;2022-09-03T15:16:58;2.65;;;2.47;;
17265;SDS011;8749;47.076;15.412;2022-09-03T15:19:46;3.85;;;3.65;;
17265;SDS011;8749;47.076;15.412;2022-09-03T15:22:31;3.58;;;3.28;;
17265;SDS011;8749;47.076;15.412;2022-09-03T15:25:09;2.45;;;2.35;;
17265;SDS011;8749;47.076;15.412;2022-09-03T15:27:55;2.17;;;2.08;;
17265;SDS011;8749;47.076;15.412;2022-09-03T15:30:34;2.20;;;2.10;;